createdAt,value
2022-11-17T00:02:09.319Z,8.40
2022-11-17T00:05:11.119Z,8.40
2022-11-17T00:08:13.052Z,8.41
2022-11-17T00:11:15.135Z,8.42
2022-11-17T01:37:29.244Z,8.84
2022-11-17T01:40:30.640Z,8.89
2022-11-17T01:43:49.591Z,8.88
2022-11-17T01:46:51.379Z,8.90
2022-11-17T01:50:00.798Z,8.90
2022-11-17T01:53:07.219Z,8.90
2022-11-17T01:56:13.584Z,8.89
2022-11-17T01:59:22.886Z,8.91
2022-11-17T02:02:24.299Z,8.95
2022-11-17T02:05:45.272Z,8.96
2022-11-17T02:08:48.505Z,8.97
2022-11-17T02:11:50.502Z,9.01
2022-11-17T02:14:53.664Z,9.03
2022-11-17T02:17:55.992Z,9.03
2022-11-17T02:21:03.483Z,9.02
2022-11-17T02:24:45.452Z,9.05
2022-11-17T02:27:55.017Z,9.06
2022-11-17T02:31:11.984Z,9.07
2022-11-17T02:34:27.215Z,9.08
2022-11-17T02:37:37.976Z,9.08
2022-11-17T02:41:04.130Z,9.10
2022-11-17T02:44:21.283Z,9.11
2022-11-17T02:47:32.394Z,9.09
2022-11-17T02:50:36.182Z,9.11
2022-11-17T02:53:39.423Z,9.10
2022-11-17T02:56:42.621Z,9.09
2022-11-17T02:59:47.236Z,9.07
2022-11-17T03:03:19.472Z,9.02
2022-11-17T03:06:45.823Z,9.04
2022-11-17T03:10:09.491Z,9.03
2022-11-17T03:13:18.976Z,9.09
2022-11-17T03:16:37.476Z,9.08
2022-11-17T03:19:47.408Z,9.10
2022-11-17T03:23:02.426Z,9.11
2022-11-17T03:26:07.575Z,9.08
2022-11-17T03:29:13.459Z,9.09
2022-11-17T03:32:16.344Z,9.15
2022-11-17T03:35:23.762Z,9.22
2022-11-17T03:38:29.732Z,9.32
2022-11-17T03:41:35.964Z,9.37
2022-11-17T03:44:42.086Z,9.44
2022-11-17T03:47:44.864Z,9.40
2022-11-17T03:51:07.931Z,9.36
2022-11-17T03:54:09.827Z,9.38
2022-11-17T03:57:36.504Z,9.42
2022-11-17T04:00:40.544Z,9.45
2022-11-17T04:03:42.012Z,9.50
2022-11-17T04:06:43.468Z,9.47
2022-11-17T04:09:44.902Z,9.42
2022-11-17T04:12:47.532Z,9.44
2022-11-17T04:15:48.952Z,9.47
2022-11-17T04:18:53.336Z,9.42
2022-11-17T04:21:57.314Z,9.33
2022-11-17T04:24:58.730Z,9.29
2022-11-17T04:28:00.134Z,9.31
2022-11-17T04:31:01.560Z,9.28
2022-11-17T04:34:05.006Z,9.23
2022-11-17T04:37:08.367Z,9.25
2022-11-17T04:40:10.493Z,9.22
2022-11-17T04:43:11.897Z,9.23
2022-11-17T04:46:13.608Z,9.23
2022-11-17T04:49:16.881Z,9.21
2022-11-17T04:52:18.330Z,9.18
2022-11-17T04:55:19.776Z,9.16
2022-11-17T04:58:21.184Z,9.19
2022-11-17T05:01:23.792Z,9.17
2022-11-17T05:04:25.213Z,9.16
2022-11-17T05:07:26.697Z,9.15
2022-11-17T05:10:28.161Z,9.17
2022-11-17T05:13:29.587Z,9.18
2022-11-17T05:16:31.082Z,9.14
2022-11-17T05:19:34.848Z,9.14
2022-11-17T05:22:36.318Z,9.13
2022-11-17T05:25:37.730Z,9.14
2022-11-17T05:28:39.428Z,9.11
2022-11-17T05:31:41.264Z,9.15
2022-11-17T05:34:42.823Z,9.14
2022-11-17T05:37:44.232Z,9.11
2022-11-17T05:40:45.643Z,9.04
2022-11-17T05:43:47.457Z,9.06
2022-11-17T05:46:48.905Z,9.06
2022-11-17T05:49:50.316Z,9.07
2022-11-17T05:52:51.796Z,9.06
2022-11-17T05:56:25.408Z,9.07
2022-11-17T05:59:50.986Z,9.07
2022-11-17T06:03:07.956Z,9.13
2022-11-17T06:06:09.584Z,9.16
2022-11-17T06:09:11.913Z,9.19
2022-11-17T06:12:13.366Z,9.21
2022-11-17T06:15:14.963Z,9.21
2022-11-17T06:18:19.555Z,9.21
2022-11-17T06:21:21.364Z,9.25
2022-11-17T06:24:23.421Z,9.25
2022-11-17T06:27:25.998Z,9.24
2022-11-17T06:30:28.746Z,9.26
2022-11-17T06:33:31.920Z,9.26
2022-11-17T06:36:33.900Z,9.25
2022-11-17T06:39:35.362Z,9.24
2022-11-17T06:42:38.807Z,9.18
2022-11-17T06:45:42.727Z,9.13
2022-11-17T06:48:44.293Z,9.12
2022-11-17T06:51:45.875Z,9.13
2022-11-17T06:54:47.358Z,9.14
2022-11-17T06:57:53.260Z,9.08
2022-11-17T07:01:01.249Z,9.06
2022-11-17T07:04:02.774Z,9.04
2022-11-17T07:07:04.369Z,9.04
2022-11-17T07:10:06.387Z,9.02
2022-11-17T07:13:07.885Z,8.97
2022-11-17T07:16:22.917Z,8.95
2022-11-17T07:19:24.885Z,8.94
2022-11-17T07:22:26.338Z,8.89
2022-11-17T07:25:27.827Z,8.83
2022-11-17T07:28:29.911Z,8.81
2022-11-17T07:31:31.346Z,8.79
2022-11-17T07:34:32.861Z,8.76
2022-11-17T07:37:34.362Z,8.77
2022-11-17T07:40:36.214Z,8.77
2022-11-17T07:43:37.823Z,8.74
2022-11-17T07:46:39.318Z,8.70
2022-11-17T07:49:40.856Z,8.68
2022-11-17T07:52:42.367Z,8.65
2022-11-17T07:55:43.916Z,8.64
2022-11-17T07:58:45.464Z,8.64
2022-11-17T08:01:47.081Z,8.63
2022-11-17T08:04:48.644Z,8.64
2022-11-17T08:07:57.789Z,8.63
2022-11-17T08:11:07.232Z,8.64
2022-11-17T08:14:08.753Z,8.63
2022-11-17T08:17:10.324Z,8.65
2022-11-17T08:20:12.172Z,8.64
2022-11-17T08:23:13.784Z,8.64
2022-11-17T08:26:15.238Z,8.63
2022-11-17T08:29:16.852Z,8.66
2022-11-17T08:32:18.317Z,8.70
2022-11-17T08:35:21.963Z,8.75
2022-11-17T08:38:23.821Z,8.77
2022-11-17T08:41:25.330Z,8.78
2022-11-17T08:44:26.834Z,8.75
2022-11-17T08:47:28.332Z,8.75
2022-11-17T08:50:30.061Z,8.78
2022-11-17T08:53:31.815Z,8.79
2022-11-17T08:56:33.303Z,8.78
2022-11-17T08:59:34.820Z,8.81
2022-11-17T09:02:38.362Z,8.83
2022-11-17T09:05:42.561Z,8.86
2022-11-17T09:08:45.934Z,8.90
2022-11-17T09:11:48.753Z,8.91
2022-11-17T09:14:50.212Z,8.94
2022-11-17T09:17:51.947Z,8.87
2022-11-17T09:20:59.231Z,8.85
2022-11-17T09:24:00.832Z,8.82
2022-11-17T09:27:02.422Z,8.82
2022-11-17T09:30:04.478Z,8.82
2022-11-17T09:33:05.989Z,8.80
2022-11-17T09:36:08.051Z,8.79
2022-11-17T09:39:09.747Z,8.74
2022-11-17T09:42:22.120Z,8.73
2022-11-17T09:45:28.808Z,8.72
2022-11-17T09:48:47.570Z,8.76
2022-11-17T09:51:50.577Z,8.76
2022-11-17T09:54:56.435Z,8.76
2022-11-17T09:58:15.094Z,8.74
2022-11-17T10:01:18.795Z,8.79
2022-11-17T10:04:20.290Z,8.77
2022-11-17T10:07:22.035Z,8.76
2022-11-17T10:10:51.014Z,8.77
2022-11-17T10:13:52.575Z,8.80
2022-11-17T10:16:56.765Z,8.82
2022-11-17T10:19:58.174Z,8.82
2022-11-17T10:23:02.806Z,8.80
2022-11-17T10:26:09.490Z,8.74
2022-11-17T10:29:21.745Z,8.71
2022-11-17T10:32:23.248Z,8.68
2022-11-17T10:35:27.977Z,8.68
2022-11-17T10:38:30.618Z,8.67
2022-11-17T10:41:42.137Z,8.66
2022-11-17T10:44:46.982Z,8.68
2022-11-17T10:47:48.398Z,8.67
2022-11-17T10:50:57.213Z,8.66
2022-11-17T10:54:05.673Z,8.65
2022-11-17T10:57:14.538Z,8.67
2022-11-17T11:00:30.663Z,8.68
2022-11-17T11:03:34.866Z,8.69
2022-11-17T11:06:36.599Z,8.72
2022-11-17T11:09:47.219Z,8.75
2022-11-17T11:13:01.858Z,8.76
2022-11-17T11:16:03.465Z,8.72
2022-11-17T11:19:12.835Z,8.75
2022-11-17T11:22:33.769Z,8.70
2022-11-17T11:25:43.198Z,8.64
2022-11-17T11:29:05.408Z,8.56
2022-11-17T11:32:23.733Z,8.52
2022-11-17T11:35:39.672Z,8.50
2022-11-17T11:38:55.608Z,8.46
2022-11-17T11:42:09.117Z,8.42
2022-11-17T11:45:26.568Z,8.40
2022-11-17T11:48:31.643Z,8.37
2022-11-17T11:51:37.889Z,8.40
2022-11-17T11:54:51.066Z,8.40
2022-11-17T11:58:05.467Z,8.39
2022-11-17T12:01:08.413Z,8.41
2022-11-17T12:04:34.887Z,8.43
2022-11-17T12:08:11.358Z,8.52
2022-11-17T12:11:16.361Z,8.64
2022-11-17T12:14:19.223Z,8.82
2022-11-17T12:17:20.742Z,8.84
2022-11-17T12:20:31.093Z,8.81
2022-11-17T12:23:35.889Z,8.80
2022-11-17T12:26:37.612Z,8.75
2022-11-17T12:29:46.617Z,8.79
2022-11-17T12:32:48.066Z,8.75
2022-11-17T12:36:29.699Z,8.74
2022-11-17T12:40:00.887Z,8.71
2022-11-17T12:43:14.465Z,8.69
2022-11-17T12:46:26.142Z,8.69
2022-11-17T12:49:52.664Z,8.68
2022-11-17T12:53:09.518Z,8.67
2022-11-17T12:56:27.377Z,8.64
2022-11-17T12:59:51.753Z,8.63
2022-11-17T13:02:57.410Z,8.55
2022-11-17T13:06:34.493Z,8.50
2022-11-17T13:09:36.106Z,8.46
2022-11-17T13:12:37.621Z,8.44
2022-11-17T13:15:40.952Z,8.46
2022-11-17T13:18:43.065Z,8.49
2022-11-17T13:21:45.322Z,8.51
2022-11-17T13:24:48.894Z,8.55
2022-11-17T13:27:56.038Z,8.53
2022-11-17T13:31:01.437Z,8.52
2022-11-17T13:34:07.549Z,8.53
2022-11-17T13:37:15.539Z,8.54
2022-11-17T13:40:22.282Z,8.51
2022-11-17T13:43:26.343Z,8.50
2022-11-17T13:46:27.923Z,8.52
2022-11-17T13:49:34.806Z,8.55
2022-11-17T13:52:43.659Z,8.59
2022-11-17T13:55:47.381Z,8.75
2022-11-17T13:58:50.805Z,8.86
2022-11-17T14:02:16.988Z,9.02
2022-11-17T14:05:19.953Z,9.11
2022-11-17T14:08:24.996Z,9.07
2022-11-17T14:11:26.880Z,9.12
2022-11-17T14:14:33.997Z,9.11
2022-11-17T14:17:35.521Z,9.14
2022-11-17T14:20:36.965Z,9.15
2022-11-17T14:23:39.281Z,9.15
2022-11-17T14:26:43.066Z,9.18
2022-11-17T14:29:44.722Z,9.28
2022-11-17T14:32:46.315Z,9.18
2022-11-17T14:35:54.235Z,9.15
2022-11-17T14:38:55.848Z,9.19
2022-11-17T14:41:57.329Z,9.21
2022-11-17T14:44:58.825Z,9.28
2022-11-17T14:48:00.364Z,9.30
2022-11-17T14:51:01.829Z,9.27
2022-11-17T14:54:03.359Z,9.29
2022-11-17T14:57:04.896Z,9.34
2022-11-17T15:00:09.328Z,9.32
2022-11-17T15:03:10.890Z,9.37
2022-11-17T15:06:19.546Z,9.38
2022-11-17T15:09:21.712Z,9.40
2022-11-17T15:12:23.584Z,9.46
2022-11-17T15:15:25.038Z,9.34
2022-11-17T15:18:26.543Z,9.42
2022-11-17T15:21:28.099Z,9.42
2022-11-17T15:24:29.620Z,9.39
2022-11-17T15:27:31.090Z,9.40
2022-11-17T15:30:33.154Z,9.38
2022-11-17T15:33:34.659Z,9.44
2022-11-17T15:36:36.363Z,9.39
2022-11-17T15:39:37.811Z,9.33
2022-11-17T15:42:39.233Z,9.35
2022-11-17T15:45:40.671Z,9.38
2022-11-17T15:48:43.834Z,9.37
2022-11-17T15:51:45.351Z,9.37
2022-11-17T15:54:46.794Z,9.55
2022-11-17T15:57:48.277Z,9.47
2022-11-17T16:00:49.802Z,9.41
2022-11-17T16:03:52.819Z,9.36
2022-11-17T16:06:54.344Z,9.37
2022-11-17T16:09:55.852Z,9.35
2022-11-17T16:12:57.301Z,9.46
2022-11-17T16:15:58.738Z,9.42
2022-11-17T16:19:00.707Z,9.42
2022-11-17T16:22:02.221Z,9.40
2022-11-17T16:25:03.919Z,9.41
2022-11-17T16:28:05.404Z,9.35
2022-11-17T16:31:23.164Z,9.42
2022-11-17T16:34:24.703Z,9.43
2022-11-17T16:37:26.210Z,9.51
2022-11-17T16:40:27.670Z,9.38
2022-11-17T16:43:29.525Z,9.41
2022-11-17T16:46:31.782Z,9.36
2022-11-17T16:49:33.281Z,9.44
2022-11-17T16:52:34.836Z,9.50
2022-11-17T16:55:36.718Z,9.43
2022-11-17T16:58:38.433Z,9.48
2022-11-17T17:01:39.992Z,9.51
2022-11-17T17:04:41.483Z,9.50
2022-11-17T17:07:43.009Z,9.51
2022-11-17T17:10:44.558Z,9.48
2022-11-17T17:13:46.056Z,9.46
2022-11-17T17:16:47.558Z,9.38
2022-11-17T17:19:49.065Z,9.36
2022-11-17T17:22:50.581Z,9.36
2022-11-17T17:26:05.024Z,9.42
2022-11-17T17:29:06.591Z,9.38
2022-11-17T17:32:08.170Z,9.32
2022-11-17T17:35:09.673Z,9.24
2022-11-17T17:38:11.171Z,9.24
2022-11-17T17:41:14.979Z,9.32
2022-11-17T17:44:18.398Z,9.27
2022-11-17T17:47:19.886Z,9.24
2022-11-17T17:50:21.355Z,9.22
2022-11-17T17:53:24.755Z,9.17
2022-11-17T17:56:26.365Z,9.21
2022-11-17T17:59:27.861Z,9.20
2022-11-17T18:02:29.275Z,9.16
2022-11-17T18:05:30.923Z,9.15
2022-11-17T18:08:36.802Z,9.14
2022-11-17T18:11:38.304Z,9.18
2022-11-17T18:14:40.915Z,9.10
2022-11-17T18:17:42.365Z,9.17
2022-11-17T18:20:43.813Z,9.17
2022-11-17T18:23:46.026Z,9.17
2022-11-17T18:26:47.453Z,9.15
2022-11-17T18:29:51.207Z,9.05
2022-11-17T18:32:52.729Z,9.03
2022-11-17T18:35:54.266Z,9.06
2022-11-17T18:38:55.944Z,9.11
2022-11-17T18:41:57.367Z,9.04
2022-11-17T18:44:58.842Z,9.00
2022-11-17T18:48:00.317Z,8.94
2022-11-17T18:51:19.251Z,8.90
2022-11-17T18:54:21.656Z,8.82
2022-11-17T18:57:23.174Z,8.83
2022-11-17T19:00:24.821Z,8.80
2022-11-17T19:03:26.283Z,8.87
2022-11-17T19:06:28.651Z,8.82
2022-11-17T19:09:30.128Z,8.91
2022-11-17T19:12:31.755Z,8.78
2022-11-17T19:15:34.356Z,8.82
2022-11-17T19:18:36.410Z,8.72
2022-11-17T19:21:37.902Z,8.74
2022-11-17T19:24:39.510Z,8.66
2022-11-17T19:27:41.028Z,8.73
2022-11-17T19:30:42.668Z,8.68
2022-11-17T19:33:45.504Z,8.62
2022-11-17T19:36:47.100Z,8.64
2022-11-17T19:39:48.622Z,8.52
2022-11-17T19:42:50.190Z,8.52
2022-11-17T19:45:51.805Z,8.43
2022-11-17T19:48:54.526Z,8.54
2022-11-17T19:51:56.004Z,8.52
2022-11-17T19:54:57.454Z,8.45
2022-11-17T19:57:59.130Z,8.55
2022-11-17T20:01:13.879Z,8.55
2022-11-17T20:04:15.450Z,8.44
2022-11-17T20:07:16.914Z,8.37
2022-11-17T20:10:18.447Z,8.27
2022-11-17T20:13:19.848Z,8.28
2022-11-17T20:16:23.749Z,8.18
2022-11-17T20:19:25.188Z,8.19
2022-11-17T20:22:26.618Z,8.23
2022-11-17T20:25:28.077Z,8.29
2022-11-17T20:28:32.825Z,8.33
2022-11-17T20:31:35.919Z,8.29
2022-11-17T20:34:37.462Z,8.26
2022-11-17T20:37:38.932Z,8.32
2022-11-17T20:40:40.607Z,8.26
2022-11-17T20:43:42.085Z,8.28
2022-11-17T20:46:43.554Z,8.21
2022-11-17T20:49:45.071Z,8.19
2022-11-17T20:52:46.574Z,8.13
2022-11-17T20:55:48.053Z,8.09
2022-11-17T20:58:49.562Z,8.12
2022-11-17T21:01:51.416Z,8.20
2022-11-17T21:04:53.126Z,8.06
2022-11-17T21:07:54.607Z,8.09
2022-11-17T21:11:16.570Z,8.01
2022-11-17T21:14:18.020Z,7.94
2022-11-17T21:17:19.551Z,7.78
2022-11-17T21:20:21.044Z,7.66
2022-11-17T21:23:22.496Z,7.52
2022-11-17T21:26:24.140Z,7.41
2022-11-17T21:29:25.798Z,7.19
2022-11-17T21:32:27.247Z,7.17
2022-11-17T21:35:28.717Z,7.00
2022-11-17T21:38:30.569Z,6.83
2022-11-17T21:41:33.773Z,6.71
2022-11-17T21:44:35.165Z,6.72
2022-11-17T21:47:36.720Z,6.70
2022-11-17T21:50:43.265Z,6.68
2022-11-17T21:53:44.789Z,6.57
2022-11-17T21:56:46.310Z,6.45
2022-11-17T21:59:47.919Z,6.48
2022-11-17T22:02:49.346Z,6.53
2022-11-17T22:05:52.339Z,6.49
2022-11-17T22:08:55.482Z,6.43
2022-11-17T22:11:56.911Z,6.45
2022-11-17T22:14:58.506Z,6.36
2022-11-17T22:17:59.921Z,6.37
2022-11-17T22:21:01.751Z,6.31
2022-11-17T22:24:04.207Z,6.32
2022-11-17T22:27:05.601Z,6.34
2022-11-17T22:30:07.560Z,6.32
2022-11-17T22:33:08.975Z,6.31
2022-11-17T22:36:10.484Z,6.27
2022-11-17T22:39:12.364Z,6.24
2022-11-17T22:42:13.905Z,6.29
2022-11-17T22:45:15.407Z,6.26
2022-11-17T22:48:16.920Z,6.26
2022-11-17T22:51:19.497Z,6.33
2022-11-17T22:54:20.933Z,6.28
2022-11-17T22:57:22.411Z,6.34
2022-11-17T23:00:24.024Z,6.34
2022-11-17T23:03:25.433Z,6.39
2022-11-17T23:06:26.959Z,6.45
2022-11-17T23:09:29.330Z,6.35
2022-11-17T23:12:30.797Z,6.41
2022-11-17T23:15:32.238Z,6.34
2022-11-17T23:18:34.064Z,6.34
2022-11-17T23:21:35.547Z,6.31
2022-11-17T23:24:36.979Z,6.22
2022-11-17T23:27:38.424Z,6.27
2022-11-17T23:30:40.029Z,6.25
2022-11-17T23:33:46.201Z,6.12
2022-11-17T23:36:47.710Z,5.94
2022-11-17T23:39:49.351Z,5.80
2022-11-17T23:42:53.097Z,5.76
2022-11-17T23:45:55.114Z,5.71
2022-11-17T23:48:56.618Z,5.61
2022-11-17T23:51:58.071Z,5.57
2022-11-17T23:54:59.519Z,5.54
2022-11-17T23:58:00.929Z,5.47
